createdAt,value
2023-01-20T00:00:32.145Z,-1.23
2023-01-20T00:03:18.290Z,-1.20
2023-01-20T00:06:04.252Z,-1.22
2023-01-20T00:08:52.663Z,-1.25
2023-01-20T00:11:38.559Z,-1.29
2023-01-20T00:14:25.482Z,-1.35
2023-01-20T00:17:11.223Z,-1.37
2023-01-20T00:19:56.878Z,-1.40
2023-01-20T00:22:42.689Z,-1.41
2023-01-20T00:25:29.706Z,-1.43
2023-01-20T00:28:15.425Z,-1.48
2023-01-20T00:31:10.329Z,-1.49
2023-01-20T00:33:56.582Z,-1.56
2023-01-20T00:36:42.568Z,-1.58
2023-01-20T00:39:28.203Z,-1.58
2023-01-20T00:42:15.348Z,-1.58
2023-01-20T00:45:01.106Z,-1.64
2023-01-20T00:47:46.926Z,-1.71
2023-01-20T00:50:32.920Z,-1.75
2023-01-20T00:53:18.900Z,-1.74
2023-01-20T00:56:05.178Z,-1.77
2023-01-20T00:58:55.019Z,-1.78
2023-01-20T01:01:40.780Z,-1.81
2023-01-20T01:04:26.523Z,-1.85
2023-01-20T01:07:12.356Z,-1.84
2023-01-20T01:09:58.024Z,-1.88
2023-01-20T01:12:43.800Z,-1.96
2023-01-20T01:15:30.857Z,-2.00
2023-01-20T01:18:16.876Z,-2.05
2023-01-20T01:21:06.633Z,-2.02
2023-01-20T01:23:52.958Z,-1.93
2023-01-20T01:26:38.959Z,-1.95
2023-01-20T01:29:24.910Z,-1.97
2023-01-20T01:32:12.466Z,-1.95
2023-01-20T01:34:58.147Z,-1.92
2023-01-20T01:37:43.949Z,-1.91
2023-01-20T01:40:29.768Z,-1.90
2023-01-20T01:43:18.981Z,-1.92
2023-01-20T01:46:05.339Z,-1.90
2023-01-20T01:48:53.045Z,-1.93
2023-01-20T01:51:39.563Z,-1.93
2023-01-20T01:54:26.796Z,-1.96
2023-01-20T01:57:12.992Z,-1.98
2023-01-20T01:59:58.662Z,-2.00
2023-01-20T02:02:44.683Z,-2.01
2023-01-20T02:05:32.116Z,-2.04
2023-01-20T02:08:17.976Z,-2.04
2023-01-20T02:11:03.838Z,-2.12
2023-01-20T02:13:49.741Z,-2.14
2023-01-20T02:16:38.095Z,-2.21
2023-01-20T02:19:47.998Z,-2.21
2023-01-20T02:22:37.602Z,-2.24
2023-01-20T02:25:42.203Z,-2.26
2023-01-20T02:28:31.731Z,-2.21
2023-01-20T02:31:24.537Z,-2.18
2023-01-20T02:34:12.223Z,-2.13
2023-01-20T02:36:58.718Z,-2.07
2023-01-20T02:39:45.717Z,-2.02
2023-01-20T02:42:33.109Z,-1.98
2023-01-20T02:45:20.813Z,-1.97
2023-01-20T02:48:08.075Z,-1.97
2023-01-20T02:50:57.579Z,-1.96
2023-01-20T02:53:44.772Z,-1.99
2023-01-20T02:56:30.911Z,-2.05
2023-01-20T02:59:18.025Z,-2.04
2023-01-20T03:02:04.863Z,-2.08
2023-01-20T03:04:51.435Z,-2.10
2023-01-20T03:07:38.946Z,-2.12
2023-01-20T03:10:25.545Z,-2.12
2023-01-20T03:13:13.581Z,-2.18
2023-01-20T03:16:00.121Z,-2.26
2023-01-20T03:18:46.248Z,-2.29
2023-01-20T03:21:32.298Z,-2.34
2023-01-20T03:24:19.572Z,-2.35
2023-01-20T03:27:05.395Z,-2.38
2023-01-20T03:29:51.219Z,-2.34
2023-01-20T03:32:36.968Z,-2.39
2023-01-20T03:35:23.068Z,-2.37
2023-01-20T03:38:10.003Z,-2.34
2023-01-20T03:41:08.720Z,-2.29
2023-01-20T03:43:56.438Z,-2.25
2023-01-20T03:46:43.570Z,-2.28
2023-01-20T03:49:30.691Z,-2.25
2023-01-20T03:52:17.643Z,-2.29
2023-01-20T03:55:04.281Z,-2.27
2023-01-20T03:57:52.476Z,-2.26
2023-01-20T04:00:39.214Z,-2.24
2023-01-20T04:03:26.511Z,-2.28
2023-01-20T04:06:12.965Z,-2.37
2023-01-20T04:08:59.961Z,-2.42
2023-01-20T04:11:46.060Z,-2.46
2023-01-20T04:14:33.536Z,-2.51
2023-01-20T04:17:19.283Z,-2.56
2023-01-20T04:20:06.113Z,-2.62
2023-01-20T04:22:52.531Z,-2.60
2023-01-20T04:25:38.825Z,-2.62
2023-01-20T04:28:24.663Z,-2.61
2023-01-20T04:31:24.977Z,-2.62
2023-01-20T04:34:16.198Z,-2.65
2023-01-20T04:37:01.923Z,-2.66
2023-01-20T04:39:47.747Z,-2.69
2023-01-20T04:42:33.568Z,-2.71
2023-01-20T04:45:19.465Z,-2.73
2023-01-20T04:48:08.176Z,-2.75
2023-01-20T04:50:53.924Z,-2.78
2023-01-20T04:53:39.652Z,-2.80
2023-01-20T04:56:25.643Z,-2.77
2023-01-20T04:59:11.440Z,-2.76
2023-01-20T05:01:57.161Z,-2.71
2023-01-20T05:04:45.126Z,-2.65
2023-01-20T05:07:30.960Z,-2.61
2023-01-20T05:10:16.949Z,-2.60
2023-01-20T05:13:02.919Z,-2.60
2023-01-20T05:15:48.626Z,-2.65
2023-01-20T05:18:34.803Z,-2.63
2023-01-20T05:21:22.245Z,-2.64
2023-01-20T05:24:08.157Z,-2.61
2023-01-20T05:26:54.079Z,-2.59
2023-01-20T05:29:40.036Z,-2.58
2023-01-20T05:32:25.760Z,-2.55
2023-01-20T05:35:11.897Z,-2.53
2023-01-20T05:37:59.456Z,-2.49
2023-01-20T05:40:45.311Z,-2.42
2023-01-20T05:43:31.495Z,-2.37
2023-01-20T05:46:17.566Z,-2.34
2023-01-20T05:49:03.542Z,-2.28
2023-01-20T05:51:49.699Z,-2.24
2023-01-20T05:54:36.786Z,-2.19
2023-01-20T05:57:24.495Z,-2.17
2023-01-20T06:00:11.035Z,-2.10
2023-01-20T06:02:57.153Z,-2.06
2023-01-20T06:05:42.922Z,-2.03
2023-01-20T06:08:28.790Z,-1.99
2023-01-20T06:11:17.830Z,-1.95
2023-01-20T06:14:03.720Z,-1.92
2023-01-20T06:16:49.636Z,-1.87
2023-01-20T06:19:35.399Z,-1.86
2023-01-20T06:22:21.440Z,-1.83
2023-01-20T06:25:08.040Z,-1.77
2023-01-20T06:27:54.998Z,-1.72
2023-01-20T06:30:43.160Z,-1.72
2023-01-20T06:33:29.272Z,-1.68
2023-01-20T06:36:17.475Z,-1.62
2023-01-20T06:39:03.225Z,-1.57
2023-01-20T06:41:49.078Z,-1.55
2023-01-20T06:44:36.234Z,-1.50
2023-01-20T06:47:22.105Z,-1.48
2023-01-20T06:50:08.440Z,-1.47
2023-01-20T06:52:55.784Z,-1.46
2023-01-20T06:55:42.034Z,-1.43
2023-01-20T06:58:29.673Z,-1.42
2023-01-20T07:01:23.873Z,-1.41
2023-01-20T07:04:10.777Z,-1.40
2023-01-20T07:06:56.551Z,-1.39
2023-01-20T07:09:43.033Z,-1.37
2023-01-20T07:12:30.110Z,-1.36
2023-01-20T07:15:16.224Z,-1.32
2023-01-20T07:18:03.760Z,-1.31
2023-01-20T07:20:54.206Z,-1.29
2023-01-20T07:23:40.070Z,-1.28
2023-01-20T07:26:26.533Z,-1.27
2023-01-20T07:29:12.789Z,-1.23
2023-01-20T07:31:58.875Z,-1.20
2023-01-20T07:34:48.251Z,-1.18
2023-01-20T07:37:35.663Z,-1.18
2023-01-20T07:40:21.459Z,-1.16
2023-01-20T07:43:07.282Z,-1.13
2023-01-20T07:45:55.220Z,-1.13
2023-01-20T07:48:41.057Z,-1.15
2023-01-20T07:51:28.299Z,-1.12
2023-01-20T07:54:14.142Z,-1.13
2023-01-20T07:56:59.998Z,-1.12
2023-01-20T07:59:45.957Z,-1.06
2023-01-20T08:02:31.715Z,-1.05
2023-01-20T08:05:17.627Z,-1.04
2023-01-20T08:08:04.745Z,-1.04
2023-01-20T08:10:53.977Z,-1.05
2023-01-20T08:13:40.423Z,-1.02
2023-01-20T08:16:26.429Z,-1.02
2023-01-20T08:19:12.305Z,-1.01
2023-01-20T08:21:58.114Z,-1.01
2023-01-20T08:24:45.307Z,-1.00
2023-01-20T08:27:31.435Z,-0.99
2023-01-20T08:30:17.605Z,-0.98
2023-01-20T08:33:03.667Z,-0.99
2023-01-20T08:35:49.481Z,-0.99
2023-01-20T08:38:35.617Z,-0.98
2023-01-20T08:41:23.984Z,-0.98
2023-01-20T08:44:10.933Z,-0.98
2023-01-20T08:46:59.294Z,-0.96
2023-01-20T08:49:45.242Z,-0.98
2023-01-20T08:52:31.688Z,-0.97
2023-01-20T08:55:17.860Z,-0.99
2023-01-20T08:58:05.154Z,-0.95
2023-01-20T09:00:50.978Z,-0.94
2023-01-20T09:03:36.740Z,-0.90
2023-01-20T09:06:22.497Z,-0.85
2023-01-20T09:09:08.243Z,-0.80
2023-01-20T09:11:54.627Z,-0.73
2023-01-20T09:14:42.388Z,-0.67
2023-01-20T09:17:28.168Z,-0.59
2023-01-20T09:20:14.225Z,-0.54
2023-01-20T09:23:01.789Z,-0.48
2023-01-20T09:25:47.868Z,-0.42
2023-01-20T09:28:33.930Z,-0.35
2023-01-20T09:31:21.282Z,-0.32
2023-01-20T09:34:07.542Z,-0.25
2023-01-20T09:36:53.378Z,-0.20
2023-01-20T09:39:57.164Z,-0.15
2023-01-20T09:43:04.856Z,-0.08
2023-01-20T09:45:52.197Z,-0.03
2023-01-20T09:49:00.526Z,0.04
2023-01-20T09:52:04.887Z,0.10
2023-01-20T09:54:51.696Z,0.18
2023-01-20T09:57:38.717Z,0.24
2023-01-20T10:00:24.463Z,0.32
2023-01-20T10:03:12.907Z,0.39
2023-01-20T10:06:00.063Z,0.46
2023-01-20T10:08:59.788Z,0.55
2023-01-20T10:11:50.888Z,0.62
2023-01-20T10:14:38.006Z,0.66
2023-01-20T10:17:24.736Z,0.66
2023-01-20T10:20:11.256Z,0.69
2023-01-20T10:22:58.915Z,0.73
2023-01-20T10:25:45.312Z,0.75
2023-01-20T10:28:31.881Z,0.79
2023-01-20T10:31:19.028Z,0.87
2023-01-20T10:34:07.142Z,0.95
2023-01-20T10:36:56.062Z,1.06
2023-01-20T10:39:45.937Z,1.16
2023-01-20T10:42:31.882Z,1.26
2023-01-20T10:45:19.293Z,1.38
2023-01-20T10:48:06.584Z,1.48
2023-01-20T10:50:54.519Z,1.55
2023-01-20T10:53:43.401Z,1.66
2023-01-20T10:56:36.685Z,1.75
2023-01-20T10:59:23.464Z,1.83
2023-01-20T11:02:13.988Z,1.89
2023-01-20T11:05:00.249Z,1.97
2023-01-20T11:07:46.075Z,2.07
2023-01-20T11:10:33.292Z,2.18
2023-01-20T11:13:20.618Z,2.23
2023-01-20T11:16:08.230Z,2.27
2023-01-20T11:18:58.700Z,2.21
2023-01-20T11:21:44.871Z,2.24
2023-01-20T11:24:36.367Z,2.26
2023-01-20T11:27:23.843Z,2.27
2023-01-20T11:30:20.215Z,2.29
2023-01-20T11:33:09.805Z,2.31
2023-01-20T11:36:00.260Z,2.35
2023-01-20T11:38:46.727Z,2.29
2023-01-20T11:41:32.696Z,2.31
2023-01-20T11:44:20.463Z,2.26
2023-01-20T11:47:17.842Z,2.28
2023-01-20T11:50:20.796Z,2.29
2023-01-20T11:53:14.173Z,2.26
2023-01-20T11:56:00.667Z,2.25
2023-01-20T11:58:51.335Z,2.20
2023-01-20T12:01:50.510Z,2.20
2023-01-20T12:04:52.783Z,2.20
2023-01-20T12:07:40.881Z,2.19
2023-01-20T12:10:28.699Z,2.25
2023-01-20T12:13:16.197Z,2.27
2023-01-20T12:16:02.095Z,2.29
2023-01-20T12:19:01.853Z,2.29
2023-01-20T12:21:49.579Z,2.28
2023-01-20T12:24:52.304Z,2.27
2023-01-20T12:27:41.996Z,2.26
2023-01-20T12:30:46.030Z,2.29
2023-01-20T12:33:32.582Z,2.31
2023-01-20T12:36:27.205Z,2.32
2023-01-20T12:39:26.387Z,2.32
2023-01-20T12:42:36.220Z,2.36
2023-01-20T12:45:26.174Z,2.32
2023-01-20T12:48:17.171Z,2.37
2023-01-20T12:51:07.260Z,2.39
2023-01-20T12:53:57.720Z,2.44
2023-01-20T12:56:45.835Z,2.48
2023-01-20T12:59:35.523Z,2.51
2023-01-20T13:02:27.570Z,2.52
2023-01-20T13:05:32.058Z,2.55
2023-01-20T13:08:19.916Z,2.56
2023-01-20T13:11:09.017Z,2.51
2023-01-20T13:14:03.345Z,2.60
2023-01-20T13:16:49.997Z,2.63
2023-01-20T13:19:38.386Z,2.63
2023-01-20T13:22:24.929Z,2.64
2023-01-20T13:25:14.025Z,2.65
2023-01-20T13:27:59.972Z,2.72
2023-01-20T13:30:47.911Z,2.79
2023-01-20T13:33:35.260Z,2.81
2023-01-20T13:36:22.810Z,2.72
2023-01-20T13:39:27.629Z,2.83
2023-01-20T13:42:28.320Z,2.82
2023-01-20T13:45:17.212Z,2.81
2023-01-20T13:48:22.408Z,2.79
2023-01-20T13:51:23.350Z,2.72
2023-01-20T13:54:24.928Z,2.64
2023-01-20T13:57:44.114Z,2.68
2023-01-20T14:00:31.522Z,2.64
2023-01-20T14:03:24.318Z,2.63
2023-01-20T14:06:19.549Z,2.59
2023-01-20T14:09:10.780Z,2.54
2023-01-20T14:11:57.040Z,2.59
2023-01-20T14:14:43.747Z,2.61
2023-01-20T14:17:30.837Z,2.62
2023-01-20T14:20:21.555Z,2.60
2023-01-20T14:23:25.130Z,2.63
2023-01-20T14:26:12.051Z,2.59
2023-01-20T14:28:58.319Z,2.57
2023-01-20T14:31:46.098Z,2.58
2023-01-20T14:34:33.428Z,2.57
2023-01-20T14:37:24.534Z,2.53
2023-01-20T14:40:20.717Z,2.55
2023-01-20T14:43:14.185Z,2.54
2023-01-20T14:46:00.321Z,2.51
2023-01-20T14:48:46.599Z,2.49
2023-01-20T14:51:33.579Z,2.50
2023-01-20T14:54:29.792Z,2.45
2023-01-20T14:57:20.533Z,2.39
2023-01-20T15:00:17.758Z,2.39
2023-01-20T15:03:11.357Z,2.38
2023-01-20T15:05:58.971Z,2.36
2023-01-20T15:09:00.509Z,2.30
2023-01-20T15:11:50.593Z,2.31
2023-01-20T15:14:37.865Z,2.27
2023-01-20T15:17:23.807Z,2.26
2023-01-20T15:20:24.589Z,2.23
2023-01-20T15:23:13.011Z,2.15
2023-01-20T15:26:08.604Z,2.12
2023-01-20T15:28:54.748Z,2.11
2023-01-20T15:31:40.473Z,2.06
2023-01-20T15:34:27.318Z,2.00
2023-01-20T15:37:15.943Z,1.94
2023-01-20T15:40:01.807Z,1.97
2023-01-20T15:42:49.419Z,1.94
2023-01-20T15:45:35.300Z,1.86
2023-01-20T15:48:22.153Z,1.84
2023-01-20T15:51:08.037Z,1.80
2023-01-20T15:53:53.926Z,1.77
2023-01-20T15:56:40.979Z,1.75
2023-01-20T15:59:30.085Z,1.72
2023-01-20T16:02:19.334Z,1.69
2023-01-20T16:05:05.727Z,1.67
2023-01-20T16:07:51.473Z,1.60
2023-01-20T16:10:37.327Z,1.57
2023-01-20T16:13:23.346Z,1.58
2023-01-20T16:16:12.155Z,1.56
2023-01-20T16:19:00.099Z,1.54
2023-01-20T16:21:46.339Z,1.49
2023-01-20T16:24:32.047Z,1.46
2023-01-20T16:27:18.583Z,1.45
2023-01-20T16:30:04.910Z,1.47
2023-01-20T16:32:52.308Z,1.41
2023-01-20T16:35:38.352Z,1.38
2023-01-20T16:38:25.019Z,1.35
2023-01-20T16:41:13.744Z,1.32
2023-01-20T16:43:59.564Z,1.27
2023-01-20T16:46:46.045Z,1.28
2023-01-20T16:49:33.015Z,1.27
2023-01-20T16:52:18.758Z,1.23
2023-01-20T16:55:04.840Z,1.14
2023-01-20T16:57:50.664Z,1.16
2023-01-20T17:00:37.378Z,1.13
2023-01-20T17:03:25.959Z,1.09
2023-01-20T17:06:13.702Z,1.02
2023-01-20T17:09:00.670Z,1.04
2023-01-20T17:11:46.308Z,1.04
2023-01-20T17:14:32.090Z,1.03
2023-01-20T17:17:17.872Z,0.99
2023-01-20T17:20:03.802Z,0.97
2023-01-20T17:22:51.659Z,0.94
2023-01-20T17:25:37.825Z,0.83
2023-01-20T17:28:23.663Z,0.83
2023-01-20T17:31:09.421Z,0.77
2023-01-20T17:33:55.250Z,0.75
2023-01-20T17:36:40.943Z,0.68
2023-01-20T17:39:27.911Z,0.62
2023-01-20T17:42:15.000Z,0.54
2023-01-20T17:45:03.426Z,0.47
2023-01-20T17:47:50.454Z,0.39
2023-01-20T17:50:36.578Z,0.33
2023-01-20T17:53:22.590Z,0.25
2023-01-20T17:56:12.877Z,0.16
2023-01-20T17:58:59.260Z,0.09
2023-01-20T18:01:45.108Z,0.01
2023-01-20T18:04:31.060Z,-0.08
2023-01-20T18:07:17.082Z,-0.16
2023-01-20T18:10:02.847Z,-0.25
2023-01-20T18:12:50.043Z,-0.28
2023-01-20T18:15:36.332Z,-0.35
2023-01-20T18:18:22.158Z,-0.41
2023-01-20T18:21:08.929Z,-0.45
2023-01-20T18:23:54.847Z,-0.48
2023-01-20T18:26:42.374Z,-0.53
2023-01-20T18:29:30.572Z,-0.59
2023-01-20T18:32:16.413Z,-0.64
2023-01-20T18:35:02.183Z,-0.69
2023-01-20T18:37:47.830Z,-0.74
2023-01-20T18:40:33.617Z,-0.79
2023-01-20T18:43:19.556Z,-0.85
2023-01-20T18:46:06.993Z,-0.89
2023-01-20T18:48:54.525Z,-0.93
2023-01-20T18:51:41.534Z,-0.99
2023-01-20T18:54:30.018Z,-1.04
2023-01-20T18:57:16.017Z,-1.09
2023-01-20T19:00:01.999Z,-1.15
2023-01-20T19:02:52.136Z,-1.18
2023-01-20T19:05:37.932Z,-1.24
2023-01-20T19:08:23.862Z,-1.32
2023-01-20T19:11:12.773Z,-1.36
2023-01-20T19:13:58.988Z,-1.39
2023-01-20T19:16:48.928Z,-1.40
2023-01-20T19:19:36.503Z,-1.45
2023-01-20T19:22:22.380Z,-1.49
2023-01-20T19:25:08.416Z,-1.53
2023-01-20T19:27:54.228Z,-1.57
2023-01-20T19:30:39.981Z,-1.60
2023-01-20T19:33:26.275Z,-1.66
2023-01-20T19:36:14.413Z,-1.71
2023-01-20T19:39:00.835Z,-1.76
2023-01-20T19:41:46.656Z,-1.79
2023-01-20T19:44:32.432Z,-1.86
2023-01-20T19:47:18.155Z,-1.90
2023-01-20T19:50:04.138Z,-1.95
2023-01-20T19:52:51.867Z,-2.00
2023-01-20T19:55:37.907Z,-2.03
2023-01-20T19:58:23.773Z,-2.06
2023-01-20T20:01:09.844Z,-2.12
2023-01-20T20:03:56.045Z,-2.15
2023-01-20T20:06:47.004Z,-2.26
2023-01-20T20:09:35.570Z,-2.29
2023-01-20T20:12:21.360Z,-2.38
2023-01-20T20:15:07.702Z,-2.35
2023-01-20T20:17:54.688Z,-2.37
2023-01-20T20:20:40.709Z,-2.41
2023-01-20T20:23:26.607Z,-2.44
2023-01-20T20:26:13.840Z,-2.47
2023-01-20T20:29:00.157Z,-2.50
2023-01-20T20:31:46.749Z,-2.56
2023-01-20T20:34:33.409Z,-2.59
2023-01-20T20:37:19.204Z,-2.63
2023-01-20T20:40:05.293Z,-2.67
2023-01-20T20:42:52.416Z,-2.71
2023-01-20T20:45:38.480Z,-2.78
2023-01-20T20:48:24.518Z,-2.81
2023-01-20T20:51:11.341Z,-2.84
2023-01-20T20:53:57.778Z,-2.87
2023-01-20T20:56:43.887Z,-2.92
2023-01-20T20:59:31.023Z,-2.94
2023-01-20T21:02:16.944Z,-2.98
2023-01-20T21:05:02.921Z,-3.04
2023-01-20T21:07:48.608Z,-3.09
2023-01-20T21:10:34.623Z,-3.11
2023-01-20T21:13:20.923Z,-3.14
2023-01-20T21:16:10.351Z,-3.15
2023-01-20T21:18:56.932Z,-3.18
2023-01-20T21:21:42.860Z,-3.21
2023-01-20T21:24:28.965Z,-3.28
2023-01-20T21:27:15.432Z,-3.30
2023-01-20T21:30:01.384Z,-3.37
2023-01-20T21:32:48.544Z,-3.44
2023-01-20T21:35:37.426Z,-3.52
2023-01-20T21:38:23.268Z,-3.53
2023-01-20T21:41:09.887Z,-3.60
2023-01-20T21:44:13.414Z,-3.65
2023-01-20T21:47:00.131Z,-3.63
2023-01-20T21:50:05.185Z,-3.64
2023-01-20T21:52:51.165Z,-3.68
2023-01-20T21:55:37.522Z,-3.67
2023-01-20T21:58:23.572Z,-3.68
2023-01-20T22:01:09.491Z,-3.70
2023-01-20T22:03:55.752Z,-3.72
2023-01-20T22:06:43.417Z,-3.73
2023-01-20T22:09:29.418Z,-3.78
2023-01-20T22:12:15.357Z,-3.85
2023-01-20T22:15:01.068Z,-3.87
2023-01-20T22:17:47.424Z,-3.89
2023-01-20T22:20:34.780Z,-3.95
2023-01-20T22:23:22.108Z,-4.07
2023-01-20T22:26:07.871Z,-4.10
2023-01-20T22:28:53.848Z,-4.13
2023-01-20T22:31:39.789Z,-4.13
2023-01-20T22:34:26.153Z,-4.20
2023-01-20T22:37:12.241Z,-4.20
2023-01-20T22:39:59.603Z,-4.21
2023-01-20T22:42:45.818Z,-4.28
2023-01-20T22:45:32.191Z,-4.38
2023-01-20T22:48:18.249Z,-4.36
2023-01-20T22:51:04.817Z,-4.39
2023-01-20T22:53:50.953Z,-4.43
2023-01-20T22:56:39.778Z,-4.44
2023-01-20T22:59:25.907Z,-4.46
2023-01-20T23:02:12.233Z,-4.45
2023-01-20T23:04:58.246Z,-4.46
2023-01-20T23:07:45.166Z,-4.44
2023-01-20T23:10:57.305Z,-4.45
2023-01-20T23:13:45.690Z,-4.48
2023-01-20T23:16:32.424Z,-4.58
2023-01-20T23:19:19.108Z,-4.62
2023-01-20T23:22:04.883Z,-4.66
2023-01-20T23:24:50.616Z,-4.69
2023-01-20T23:27:36.664Z,-4.72
2023-01-20T23:30:23.660Z,-4.72
2023-01-20T23:33:10.167Z,-4.71
2023-01-20T23:35:56.073Z,-4.74
2023-01-20T23:38:42.213Z,-4.77
2023-01-20T23:41:28.454Z,-4.78
2023-01-20T23:44:14.408Z,-4.78
2023-01-20T23:47:01.641Z,-4.79
2023-01-20T23:49:47.519Z,-4.80
2023-01-20T23:52:33.439Z,-4.81
2023-01-20T23:55:19.245Z,-4.82
2023-01-20T23:58:05.006Z,-4.84
